Time;durP1;ratioP1;P1;durP2;ratioP2;P2;SDS_P1;SDS_P2;PMS_P1;PMS_P2;Temp;Humidity;BMP_temperature;BMP_pressure;BME280_temperature;BME280_humidity;BME280_pressure;Samples;Min_cycle;Max_cycle;Signal;HPM_P1;HPM_P2
2022/10/26 00:00:05;;;;;;;;;17.50;15.00;;;;;15.98;70.15;101222.28;146634;616;45020;-73
2022/10/26 00:03:23;;;;;;;;;19.25;16.75;;;;;15.94;71.06;101210.81;146632;626;45916;-75
2022/10/26 00:06:36;;;;;;;;;20.75;18.00;;;;;16.00;73.18;101221.50;146628;605;45020;-76
2022/10/26 00:09:34;;;;;;;;;25.00;20.50;;;;;16.00;72.86;101212.78;146629;727;46916;-76
2022/10/26 00:12:30;;;;;;;;;17.25;17.25;;;;;15.84;72.99;101183.44;146634;564;45010;-75
2022/10/26 00:15:25;;;;;;;;;21.75;19.75;;;;;15.38;72.45;101089.31;146632;577;46012;-75
2022/10/26 00:18:39;;;;;;;;;20.25;20.25;;;;;16.10;73.63;101213.16;146632;621;45011;-74
2022/10/26 00:21:35;;;;;;;;;24.75;22.50;;;;;15.28;73.54;101074.13;146631;567;45016;-74
2022/10/26 00:24:33;;;;;;;;;24.25;20.25;;;;;16.15;73.35;101216.84;146636;570;45020;-77
2022/10/26 00:27:34;;;;;;;;;27.25;22.50;;;;;16.19;73.39;101211.72;146632;586;45916;-76
2022/10/26 00:30:32;;;;;;;;;22.25;20.50;;;;;16.20;73.26;101211.81;146628;573;46012;-76
2022/10/26 00:33:31;;;;;;;;;28.75;24.50;;;;;16.23;73.71;101211.00;146608;565;47012;-80
2022/10/26 00:36:31;;;;;;;;;24.25;22.00;;;;;16.23;73.23;101211.91;146606;661;46010;-78
2022/10/26 00:39:38;;;;;;;;;26.50;24.25;;;;;14.27;72.36;100878.84;146609;606;46017;-79
2022/10/26 00:42:36;;;;;;;;;27.00;23.75;;;;;16.24;72.83;101211.06;146612;628;46020;-71
2022/10/26 00:45:37;;;;;;;;;23.00;20.25;;;;;16.20;72.10;101205.66;146608;607;46016;-71
2022/10/26 00:48:46;;;;;;;;;24.25;22.75;;;;;16.24;72.13;101218.91;146609;598;46011;-73
2022/10/26 00:51:45;;;;;;;;;24.00;22.25;;;;;16.23;71.93;101217.16;146606;659;47012;-76
2022/10/26 00:54:46;;;;;;;;;23.00;21.50;;;;;16.22;71.61;101217.97;146611;705;46020;-77
2022/10/26 00:57:46;;;;;;;;;22.75;21.50;;;;;16.17;71.37;101209.97;146607;615;46916;-76
2022/10/26 01:00:47;;;;;;;;;17.75;15.50;;;;;16.08;71.29;101213.97;146610;597;47010;-80
2022/10/26 01:03:43;;;;;;;;;21.00;18.25;;;;;16.04;71.14;101214.66;146611;591;46016;-75
2022/10/26 01:06:41;;;;;;;;;16.00;15.25;;;;;15.99;71.62;101205.78;146605;596;46010;-75
2022/10/26 01:09:42;;;;;;;;;19.00;16.75;;;;;15.95;71.31;101204.78;146608;612;46016;-85
2022/10/26 01:12:41;;;;;;;;;17.00;15.00;;;;;15.93;71.21;101203.81;146610;656;47010;-75
2022/10/26 01:16:24;;;;;;;;;18.00;13.50;;;;;14.15;69.94;100893.12;146608;607;46014;-75
2022/10/26 01:20:09;;;;;;;;;20.25;15.75;;;;;13.84;69.36;100848.47;146613;604;46010;-73
2022/10/26 01:23:32;;;;;;;;;13.25;11.00;;;;;15.79;69.38;101202.41;146608;615;46016;-73
2022/10/26 01:27:17;;;;;;;;;16.25;12.00;;;;;14.07;68.83;100931.94;146610;648;47011;-74
2022/10/26 01:30:54;;;;;;;;;13.50;12.50;;;;;15.63;69.12;101214.84;146608;577;46016;-75
2022/10/26 01:34:02;;;;;;;;;15.00;13.75;;;;;15.65;69.66;101207.97;146610;607;46021;-75
2022/10/26 01:37:32;;;;;;;;;;;;;;;;;;;;;
2022/10/26 01:40:53;;;;;;;;;18.75;15.50;;;;;15.77;70.62;101207.59;146606;564;47010;-79
2022/10/26 01:43:58;;;;;;;;;14.75;14.75;;;;;15.76;69.89;101210.13;146608;562;47012;-76
2022/10/26 01:47:11;;;;;;;;;22.75;19.50;;;;;15.76;71.43;101207.50;146611;596;46020;-78
2022/10/26 01:50:06;;;;;;;;;22.00;18.00;;;;;15.76;72.71;101207.50;146607;564;46031;-80
2022/10/26 01:53:02;;;;;;;;;24.25;23.00;;;;;15.74;74.23;101199.63;146610;612;46020;-79
2022/10/26 01:55:58;;;;;;;;;27.00;23.00;;;;;15.76;74.44;101203.16;146605;570;47016;-79
2022/10/26 01:59:44;;;;;;;;;29.25;22.50;;;;;15.79;73.19;101211.12;146614;635;46010;-80
2022/10/26 02:03:22;;;;;;;;;30.00;26.00;;;;;15.88;74.15;101205.38;146613;632;46914;-81
2022/10/26 02:06:49;;;;;;;;;36.25;29.50;;;;;15.92;74.34;101213.41;146613;569;46020;-80
2022/10/26 02:10:23;;;;;;;;;33.00;29.25;;;;;15.99;74.88;101211.91;146608;596;46013;-77
2022/10/26 02:13:44;;;;;;;;;35.50;29.75;;;;;16.10;74.17;101210.53;146605;629;46020;-82
2022/10/26 02:17:03;;;;;;;;;33.50;29.50;;;;;16.26;73.55;101218.94;146608;569;47012;-84
2022/10/26 02:20:22;;;;;;;;;34.75;31.00;;;;;16.39;72.88;101240.41;146612;602;46020;-79
2022/10/26 02:23:40;;;;;;;;;38.75;32.25;;;;;16.49;72.84;101218.06;146607;728;46017;-76
2022/10/26 02:26:39;;;;;;;;;35.75;30.50;;;;;16.55;72.53;101218.28;146611;594;46021;-77
2022/10/26 02:29:41;;;;;;;;;38.50;32.50;;;;;16.54;72.46;101218.19;146599;569;47914;-77
2022/10/26 02:32:52;;;;;;;;;32.50;29.00;;;;;16.49;72.84;101218.06;146635;569;45021;-77
2022/10/26 02:35:59;;;;;;;;;34.75;30.75;;;;;14.63;72.22;100901.97;146628;593;45914;-77
2022/10/26 02:39:07;;;;;;;;;36.00;30.50;;;;;16.34;73.42;101217.50;146633;584;45011;-77
2022/10/26 02:42:10;;;;;;;;;34.75;28.75;;;;;16.23;73.40;101211.91;146633;609;45012;-79
2022/10/26 02:45:26;;;;;;;;;27.75;24.50;;;;;16.11;73.55;101214.97;146628;569;45020;-78
2022/10/26 02:48:19;;;;;;;;;34.50;29.75;;;;;16.04;73.60;101214.66;146628;583;45017;-79
2022/10/26 02:51:46;;;;;;;;;35.00;31.50;;;;;15.98;73.72;101214.44;146634;602;45028;-79
2022/10/26 02:55:29;;;;;;;;;34.75;29.00;;;;;15.91;72.82;101222.06;146627;597;46013;-79
2022/10/26 02:58:58;;;;;;;;;33.00;28.75;;;;;15.83;73.23;101215.66;146635;602;44912;-79
2022/10/26 03:01:53;;;;;;;;;30.75;28.00;;;;;15.74;74.36;101223.16;146625;604;45912;-80
2022/10/26 03:04:50;;;;;;;;;35.75;28.75;;;;;15.68;73.84;101228.16;146634;589;45020;-73
2022/10/26 03:07:57;;;;;;;;;33.00;29.75;;;;;13.81;73.49;100921.34;146632;576;45914;-75
2022/10/26 03:10:56;;;;;;;;;35.75;29.00;;;;;15.57;74.46;101230.31;146630;596;45012;-81
2022/10/26 03:14:00;;;;;;;;;;;;;;;;;;;;;
2022/10/26 03:17:00;;;;;;;;;28.75;25.50;;;;;15.41;75.04;101243.59;146623;611;46021;-74
2022/10/26 03:19:53;;;;;;;;;28.00;25.50;;;;;15.34;75.22;101241.59;146631;571;45016;-75
2022/10/26 03:22:46;;;;;;;;;27.00;24.25;;;;;15.30;74.71;101232.75;146634;758;45010;-74
2022/10/26 03:25:42;;;;;;;;;31.75;28.00;;;;;15.29;74.32;101232.66;146632;588;46012;-74
2022/10/26 03:28:35;;;;;;;;;29.00;26.00;;;;;15.28;74.31;101234.38;146632;582;45010;-78
2022/10/26 03:31:32;;;;;;;;;29.00;25.00;;;;;15.28;74.52;101237.00;146616;575;47014;-78
2022/10/26 03:34:51;;;;;;;;;29.50;26.50;;;;;15.26;73.88;101238.66;146610;666;46020;-74
2022/10/26 03:37:43;;;;;;;;;27.50;24.50;;;;;15.35;73.74;101240.75;146604;628;47013;-75
2022/10/26 03:40:48;;;;;;;;;;;;;;;;;;;;;
2022/10/26 03:43:47;;;;;;;;;29.75;28.25;;;;;15.42;73.67;101245.38;146608;563;46016;-76
2022/10/26 03:46:45;;;;;;;;;31.75;26.25;;;;;15.34;73.22;101249.44;146605;622;46020;-76
2022/10/26 03:49:37;;;;;;;;;23.25;22.75;;;;;15.32;73.39;101251.06;146607;580;46016;-80
2022/10/26 03:52:29;;;;;;;;;28.25;25.00;;;;;15.24;72.84;101256.00;146609;571;46020;-77
2022/10/26 03:55:38;;;;;;;;;24.25;21.25;;;;;15.23;73.27;101260.34;146609;576;46915;-75
2022/10/26 03:58:33;;;;;;;;;27.25;25.25;;;;;15.28;73.03;101262.25;146610;584;47010;-75
2022/10/26 04:01:25;;;;;;;;;31.00;23.75;;;;;15.21;72.77;101258.50;146605;595;47014;-77
2022/10/26 04:04:22;;;;;;;;;22.75;18.00;;;;;15.11;72.77;101267.69;146612;615;46020;-75
2022/10/26 04:07:17;;;;;;;;;19.75;17.75;;;;;15.03;72.31;101261.22;146608;606;46016;-75
2022/10/26 04:10:23;;;;;;;;;20.50;19.00;;;;;14.96;71.71;101253.97;146611;601;46010;-77
2022/10/26 04:13:21;;;;;;;;;19.00;16.50;;;;;14.92;71.83;101257.25;146605;582;48012;-77
2022/10/26 04:16:13;;;;;;;;;15.50;13.25;;;;;14.88;71.67;101261.47;146606;565;46020;-75
2022/10/26 04:19:12;;;;;;;;;17.50;16.25;;;;;14.85;71.65;101265.69;146608;573;46016;-75
2022/10/26 04:22:14;;;;;;;;;20.50;17.00;;;;;14.84;71.39;101275.22;146612;581;46021;-74
2022/10/26 04:25:32;;;;;;;;;18.75;16.50;;;;;14.91;71.22;101276.38;146609;679;46915;-75
2022/10/26 04:28:31;;;;;;;;;18.00;14.75;;;;;14.97;71.08;101277.53;146613;572;46020;-75
2022/10/26 04:31:37;;;;;;;;;15.50;13.00;;;;;14.99;71.06;101275.88;146608;579;46012;-74
2022/10/26 04:34:36;;;;;;;;;17.75;13.25;;;;;15.02;70.86;101283.84;146611;592;47010;-74
2022/10/26 04:37:36;;;;;;;;;17.25;16.50;;;;;14.99;70.95;101275.88;146608;596;46017;-72
2022/10/26 04:40:35;;;;;;;;;15.00;14.00;;;;;14.92;71.40;101281.69;146612;604;47010;-72
2022/10/26 04:43:28;;;;;;;;;13.75;12.50;;;;;14.89;71.30;101280.63;146608;599;47016;-72
2022/10/26 04:46:24;;;;;;;;;21.25;15.50;;;;;14.83;71.29;101283.91;146607;615;46020;-73
2022/10/26 04:49:16;;;;;;;;;19.00;16.50;;;;;14.78;71.31;101290.63;146605;590;46016;-74
2022/10/26 04:52:29;;;;;;;;;16.00;14.25;;;;;14.74;71.41;101299.16;146609;659;46021;-75
2022/10/26 04:55:24;;;;;;;;;22.00;16.50;;;;;14.72;72.26;101292.97;146608;614;46916;-75
2022/10/26 04:58:19;;;;;;;;;18.25;16.00;;;;;14.73;72.12;101298.25;146610;570;47010;-76
2022/10/26 05:01:14;;;;;;;;;18.50;16.75;;;;;14.78;72.51;101296.75;146606;571;47012;-74
2022/10/26 05:04:14;;;;;;;;;25.25;19.75;;;;;14.84;73.28;101290.00;146609;571;46020;-74
2022/10/26 05:07:21;;;;;;;;;21.25;20.50;;;;;14.85;72.95;101299.62;146608;579;47012;-73
2022/10/26 05:10:16;;;;;;;;;21.25;19.25;;;;;14.86;72.64;101291.88;146607;611;47010;-73
2022/10/26 05:13:12;;;;;;;;;27.75;23.75;;;;;14.94;72.79;101297.41;146606;572;46017;-73
2022/10/26 05:16:16;;;;;;;;;23.75;20.25;;;;;15.06;72.65;101302.25;146605;583;46020;-79
2022/10/26 05:19:22;;;;;;;;;27.25;21.50;;;;;15.15;73.10;101302.66;146609;563;46016;-80
2022/10/26 05:22:37;;;;;;;;;;;;;;;;;;;;;
2022/10/26 05:25:42;;;;;;;;;30.00;28.00;;;;;15.31;73.30;101305.06;146607;672;47012;-73
2022/10/26 05:28:37;;;;;;;;;42.75;33.00;;;;;15.56;74.56;101296.50;146612;625;46021;-75
2022/10/26 05:31:36;;;;;;;;;35.00;31.50;;;;;16.01;73.86;101304.41;146615;593;46020;-74
2022/10/26 05:34:33;;;;;;;;;35.50;31.00;;;;;16.57;73.82;101309.94;146620;625;46020;-71
2022/10/26 05:37:51;;;;;;;;;43.00;34.00;;;;;15.48;71.30;101018.25;146618;688;46016;-89
2022/10/26 05:41:00;;;;;;;;;43.25;36.00;;;;;17.72;69.29;101308.63;146622;581;46012;-89
2022/10/26 05:43:52;;;;;;;;;46.75;37.75;;;;;18.13;68.80;101306.41;146620;599;46012;-79
2022/10/26 05:46:50;;;;;;;;;38.75;32.25;;;;;18.65;67.63;101306.16;146613;630;46029;-78
2022/10/26 05:49:55;;;;;;;;;;;;;;;;;;;;;
2022/10/26 05:52:54;;;;;;;;;35.00;32.00;;;;;19.80;65.15;101310.88;146619;621;46021;-81
2022/10/26 05:55:51;;;;;;;;;39.75;32.25;;;;;20.40;64.15;101323.56;146620;631;46016;-92
2022/10/26 05:58:52;;;;;;;;;37.75;31.25;;;;;20.97;62.24;101319.47;146624;613;46020;-90
2022/10/26 06:02:33;;;;;;;;;39.25;32.25;;;;;20.00;60.85;101058.59;146618;569;46916;-72
2022/10/26 06:05:37;;;;;;;;;39.75;31.00;;;;;22.10;59.40;101331.84;146618;608;47013;-81
2022/10/26 06:08:41;;;;;;;;;31.25;28.50;;;;;22.53;58.87;101328.91;146616;575;47012;-75
2022/10/26 06:11:37;;;;;;;;;34.25;29.75;;;;;22.89;57.39;101344.25;146622;571;46020;-78
2022/10/26 06:14:46;;;;;;;;;41.75;34.25;;;;;21.70;56.09;101095.47;146615;596;46038;-81
2022/10/26 06:18:21;;;;;;;;;39.00;30.50;;;;;23.32;56.16;101354.44;146614;573;47010;-82
2022/10/26 06:22:05;;;;;;;;;39.00;32.75;;;;;23.42;54.71;101356.28;146616;616;46012;-76
2022/10/26 06:25:54;;;;;;;;;43.50;34.00;;;;;21.57;54.46;101075.97;146622;626;46020;-76
2022/10/26 06:29:27;;;;;;;;;37.00;32.00;;;;;22.89;55.84;101362.78;146616;571;46915;-74
2022/10/26 06:32:24;;;;;;;;;44.00;34.00;;;;;22.69;54.93;101361.69;146610;590;47010;-74
2022/10/26 06:36:12;;;;;;;;;;;;;;;;;;;;;
2022/10/26 06:39:19;;;;;;;;;43.50;36.00;;;;;22.01;58.12;101368.69;146609;615;47010;-75
2022/10/26 06:42:19;;;;;;;;;44.25;37.00;;;;;21.85;59.11;101371.97;146610;594;46016;-74
2022/10/26 06:45:32;;;;;;;;;20.25;20.00;;;;;20.28;59.84;101102.16;146611;576;46010;-71
2022/10/26 06:48:56;;;;;;;;;34.50;29.00;;;;;21.91;59.85;101372.94;146605;660;47012;-76
2022/10/26 06:52:21;;;;;;;;;43.25;34.75;;;;;21.74;59.92;101321.63;146605;628;46020;-79
2022/10/26 06:55:23;;;;;;;;;43.25;34.00;;;;;21.32;60.30;101253.25;146608;680;46916;-72
2022/10/26 06:58:32;;;;;;;;;42.50;32.50;;;;;22.11;60.67;101388.19;146607;578;47010;-77
2022/10/26 07:01:26;;;;;;;;;22.75;21.25;;;;;22.19;60.72;101385.72;146608;575;46916;-83
2022/10/26 07:04:22;;;;;;;;;42.50;33.25;;;;;22.27;60.53;101391.97;146612;610;46020;-69
2022/10/26 07:07:28;;;;;;;;;51.75;41.25;;;;;22.31;59.19;101389.41;146609;600;46032;-77
2022/10/26 07:10:25;;;;;;;;;46.50;36.75;;;;;22.31;59.23;101394.69;146611;580;46020;-82
2022/10/26 07:13:29;;;;;;;;;51.50;39.75;;;;;21.13;59.00;101186.13;146610;751;45917;-79
2022/10/26 07:16:24;;;;;;;;;47.75;37.75;;;;;22.31;59.42;101388.53;146612;795;46020;-76
2022/10/26 07:19:16;;;;;;;;;44.00;36.75;;;;;22.34;59.52;101394.72;146606;590;46017;-75
2022/10/26 07:22:11;;;;;;;;;41.50;35.25;;;;;22.42;58.43;101396.56;146608;588;46010;-77
2022/10/26 07:25:03;;;;;;;;;43.25;34.75;;;;;22.39;59.18;101389.50;146606;565;47012;-75
2022/10/26 07:27:59;;;;;;;;;41.75;35.50;;;;;22.43;59.49;101393.97;146611;635;46021;-75
2022/10/26 07:31:04;;;;;;;;;44.50;36.75;;;;;22.49;58.74;101391.41;146608;577;47014;-77
2022/10/26 07:34:04;;;;;;;;;47.50;37.75;;;;;22.49;58.71;101391.41;146612;635;46010;-74
2022/10/26 07:36:56;;;;;;;;;51.50;41.00;;;;;22.49;58.11;101387.84;146608;574;47014;-75
2022/10/26 07:39:50;;;;;;;;;47.25;39.00;;;;;22.57;58.55;101397.66;146614;641;46020;-75
2022/10/26 07:42:42;;;;;;;;;45.25;37.00;;;;;22.63;58.54;101399.50;146604;603;47014;-74
2022/10/26 07:45:45;;;;;;;;;46.00;38.00;;;;;22.72;58.49;101399.63;146611;678;47010;-76
2022/10/26 07:48:45;;;;;;;;;54.75;42.75;;;;;22.88;58.47;101397.16;146609;602;46016;-74
2022/10/26 07:51:47;;;;;;;;;57.50;41.00;;;;;23.02;57.87;101403.50;146607;573;46010;-74
2022/10/26 07:54:39;;;;;;;;;48.75;40.25;;;;;23.15;57.59;101408.06;146610;569;46016;-74
2022/10/26 07:57:36;;;;;;;;;45.75;37.50;;;;;23.28;57.43;101402.03;146611;610;46020;-74
2022/10/26 08:00:29;;;;;;;;;46.50;37.25;;;;;23.47;57.40;101407.50;146608;652;46914;-74
2022/10/26 08:03:25;;;;;;;;;47.00;38.00;;;;;23.65;56.12;101412.06;146610;613;47010;-73
2022/10/26 08:06:21;;;;;;;;;46.00;36.00;;;;;23.76;54.42;101402.47;146608;646;46012;-75
2022/10/26 08:09:16;;;;;;;;;43.00;34.75;;;;;23.83;55.66;101403.41;146608;635;47010;-74
2022/10/26 08:12:19;;;;;;;;;;;;;;;;;;;;;
2022/10/26 08:15:18;;;;;;;;;44.25;35.75;;;;;24.08;55.07;101409.75;146610;607;46020;-74
2022/10/26 08:18:23;;;;;;;;;44.00;34.75;;;;;24.20;53.71;101404.53;146606;694;47012;-74
2022/10/26 08:21:21;;;;;;;;;44.50;34.25;;;;;24.31;53.86;101410.78;146605;566;46010;-76
2022/10/26 08:24:16;;;;;;;;;47.00;37.50;;;;;24.37;53.46;101409.94;146606;570;47012;-73
2022/10/26 08:27:18;;;;;;;;;48.50;38.50;;;;;24.36;53.28;101410.81;146611;578;46021;-76
2022/10/26 08:30:17;;;;;;;;;44.25;34.00;;;;;24.43;53.75;101410.03;146606;624;46014;-74
2022/10/26 08:33:22;;;;;;;;;44.75;36.00;;;;;24.52;54.02;101407.41;146621;580;46020;-74
2022/10/26 08:36:18;;;;;;;;;47.25;38.25;;;;;24.66;53.28;101410.13;146608;641;47014;-78
2022/10/26 08:39:17;;;;;;;;;48.75;38.75;;;;;24.78;53.24;101414.59;146618;646;47010;-74
2022/10/26 08:42:48;;;;;;;;;47.75;39.75;;;;;23.38;54.66;101172.75;146616;583;46910;-74
2022/10/26 08:45:49;;;;;;;;;43.75;37.50;;;;;24.87;53.65;101423.47;146621;580;46010;-75
2022/10/26 08:48:50;;;;;;;;;46.25;37.25;;;;;24.87;53.50;101422.59;146616;645;46017;-74
2022/10/26 08:51:45;;;;;;;;;45.75;36.50;;;;;24.84;53.20;101422.56;146613;570;46010;-73
2022/10/26 08:55:03;;;;;;;;;47.50;39.50;;;;;23.13;54.64;101139.97;146612;601;46012;-74
2022/10/26 08:57:58;;;;;;;;;44.25;36.00;;;;;24.83;53.17;101424.34;146620;628;46021;-75
2022/10/26 09:00:53;;;;;;;;;41.00;35.75;;;;;24.92;53.87;101418.16;146615;633;47014;-73
2022/10/26 09:03:52;;;;;;;;;46.75;36.75;;;;;25.06;52.72;101415.56;146620;586;46032;-75
2022/10/26 09:07:55;;;;;;;;;48.25;39.00;;;;;23.60;54.77;101143.75;146614;604;46016;-73
2022/10/26 09:11:07;;;;;;;;;46.50;36.50;;;;;25.35;52.55;101413.00;146618;624;47010;-75
2022/10/26 09:14:27;;;;;;;;;47.00;37.25;;;;;24.61;53.65;101277.53;146614;624;47012;-76
2022/10/26 09:17:52;;;;;;;;;41.50;35.00;;;;;25.62;53.85;101413.91;146621;631;46013;-75
2022/10/26 09:21:25;;;;;;;;;40.50;34.75;;;;;25.71;52.66;101400.63;146616;751;46911;-76
2022/10/26 09:24:38;;;;;;;;;40.50;33.50;;;;;25.75;53.67;101407.69;146616;608;46010;-74
2022/10/26 09:28:08;;;;;;;;;;;;;;;;;;;;;
2022/10/26 09:31:21;;;;;;;;;27.25;26.25;;;;;25.92;48.11;101407.72;146616;604;46010;-74
2022/10/26 09:34:39;;;;;;;;;27.50;25.25;;;;;25.86;50.89;101407.72;146610;599;46006;-72
2022/10/26 09:37:43;;;;;;;;;28.25;25.25;;;;;25.83;50.78;101405.09;146611;572;46020;-72
2022/10/26 09:41:18;;;;;;;;;;;;;;;;;;;;;
2022/10/26 09:44:35;;;;;;;;;19.75;17.50;;;;;25.80;50.82;101396.19;146611;630;46020;-73
2022/10/26 09:47:49;;;;;;;;;24.50;22.25;;;;;25.86;52.24;101397.09;146607;574;46017;-73
2022/10/26 09:50:52;;;;;;;;;26.00;21.75;;;;;25.95;50.47;101397.06;146606;596;47010;-72
2022/10/26 09:53:45;;;;;;;;;19.25;18.25;;;;;25.87;47.42;101396.22;146610;592;46914;-73
2022/10/26 09:56:45;;;;;;;;;25.25;21.25;;;;;25.72;48.95;101391.75;146603;660;47010;-73
2022/10/26 09:59:54;;;;;;;;;24.00;19.25;;;;;25.58;45.62;101403.28;146608;586;46016;-72
2022/10/26 10:03:08;;;;;;;;;22.50;19.25;;;;;25.48;48.66;101396.22;146611;565;46021;-73
2022/10/26 10:06:25;;;;;;;;;24.50;20.00;;;;;25.42;44.79;101392.63;146606;572;47014;-72
2022/10/26 10:09:23;;;;;;;;;21.25;19.25;;;;;25.33;46.56;101401.50;146611;684;47010;-73
2022/10/26 10:12:25;;;;;;;;;22.75;21.50;;;;;25.30;48.21;101389.09;146607;575;47012;-73
2022/10/26 10:15:25;;;;;;;;;19.50;19.50;;;;;25.32;47.96;101384.66;146610;584;47010;-74
2022/10/26 10:18:24;;;;;;;;;17.75;16.50;;;;;25.34;47.75;101390.88;146610;615;46021;-74
2022/10/26 10:21:16;;;;;;;;;19.50;18.00;;;;;25.39;45.51;101389.97;146609;573;46020;-74
2022/10/26 10:24:37;;;;;;;;;19.50;16.75;;;;;25.45;49.25;101374.97;146607;666;47012;-74
2022/10/26 10:27:30;;;;;;;;;19.25;19.25;;;;;25.49;45.23;101374.06;146606;571;46020;-71
2022/10/26 10:31:12;;;;;;;;;19.75;18.75;;;;;24.15;46.63;101138.69;146607;570;47014;-72
2022/10/26 10:34:30;;;;;;;;;21.00;19.50;;;;;24.19;50.29;101121.91;146612;597;46020;-73
2022/10/26 10:37:51;;;;;;;;;21.75;18.75;;;;;25.83;46.21;101366.13;146606;564;47012;-74
2022/10/26 10:41:03;;;;;;;;;23.75;23.50;;;;;25.96;49.33;101366.97;146606;740;47010;-73
2022/10/26 10:44:28;;;;;;;;;21.25;19.50;;;;;26.10;49.46;101359.84;146608;644;46032;-73
2022/10/26 10:47:35;;;;;;;;;25.25;22.00;;;;;26.29;50.23;101352.69;146608;587;46010;-76
2022/10/26 10:50:36;;;;;;;;;21.00;18.50;;;;;26.52;48.99;101343.78;146606;579;47012;-72
2022/10/26 10:53:57;;;;;;;;;21.50;16.00;;;;;25.14;49.14;101076.84;146606;622;47020;-74
2022/10/26 10:57:36;;;;;;;;;26.00;20.00;;;;;26.79;49.51;101354.28;146605;570;47012;-73
2022/10/26 11:00:32;;;;;;;;;21.50;15.75;;;;;26.81;48.19;101340.97;146607;570;46020;-73
2022/10/26 11:04:05;;;;;;;;;19.00;17.75;;;;;26.74;46.86;101329.47;146607;603;46915;-74
2022/10/26 11:07:04;;;;;;;;;26.75;20.50;;;;;26.79;47.27;101340.09;146609;651;47010;-75
2022/10/26 11:10:11;;;;;;;;;22.75;18.25;;;;;26.81;48.88;101332.97;146605;564;47017;-73
2022/10/26 11:13:14;;;;;;;;;21.25;19.25;;;;;26.79;48.43;101334.75;146610;610;46020;-73
2022/10/26 11:16:33;;;;;;;;;22.25;19.00;;;;;26.78;46.26;101340.97;146607;602;46914;-75
2022/10/26 11:20:11;;;;;;;;;20.25;19.00;;;;;25.24;50.00;101083.00;146609;617;47010;-75
2022/10/26 11:23:30;;;;;;;;;31.00;22.50;;;;;26.72;49.54;101328.59;146607;604;47012;-74
2022/10/26 11:27:06;;;;;;;;;24.75;20.75;;;;;26.45;51.12;101271.09;146612;602;46010;-75
2022/10/26 11:30:26;;;;;;;;;27.25;25.50;;;;;26.86;51.39;101333.84;146600;630;48912;-75
2022/10/26 11:33:49;;;;;;;;;27.00;23.50;;;;;25.57;50.33;101104.06;146628;590;45020;-73
2022/10/26 11:37:16;;;;;;;;;23.50;20.50;;;;;27.00;51.61;101331.09;146631;591;45012;-73
2022/10/26 11:40:47;;;;;;;;;24.25;23.00;;;;;27.08;51.44;101332.81;146632;593;45020;-74
2022/10/26 11:43:51;;;;;;;;;23.25;20.25;;;;;27.09;50.70;101331.91;146630;631;45910;-74
2022/10/26 11:46:59;;;;;;;;;24.75;21.00;;;;;27.01;51.19;101335.50;146633;588;45021;-75
2022/10/26 11:50:18;;;;;;;;;26.00;23.50;;;;;26.99;51.33;101329.31;146632;627;45914;-74
2022/10/26 11:53:31;;;;;;;;;22.25;20.75;;;;;27.01;51.51;101330.19;146633;564;45021;-73
2022/10/26 11:56:38;;;;;;;;;25.50;23.50;;;;;27.11;52.45;101323.91;146630;579;46914;-73
2022/10/26 11:59:43;;;;;;;;;22.75;21.00;;;;;27.22;51.44;101323.84;146633;611;45020;-74
2022/10/26 12:02:44;;;;;;;;;23.75;23.00;;;;;27.28;49.86;101322.03;146627;584;46012;-75
2022/10/26 12:05:57;;;;;;;;;25.50;23.00;;;;;27.27;51.88;101327.38;146629;580;44914;-74
2022/10/26 12:09:25;;;;;;;;;21.75;18.50;;;;;27.26;50.30;101325.59;146631;593;46014;-74
2022/10/26 12:12:58;;;;;;;;;25.00;24.00;;;;;27.27;51.42;101316.72;146632;596;46012;-72
2022/10/26 12:16:48;;;;;;;;;26.25;23.00;;;;;25.75;51.14;101067.69;146630;581;45912;-73
2022/10/26 12:20:16;;;;;;;;;19.00;18.75;;;;;27.14;51.60;101323.94;146631;578;45020;-74
2022/10/26 12:23:23;;;;;;;;;26.75;25.75;;;;;27.16;51.39;101327.44;146619;576;48914;-72
2022/10/26 12:27:03;;;;;;;;;23.25;22.75;;;;;25.78;51.82;101057.94;146633;585;46012;-74
2022/10/26 12:30:35;;;;;;;;;27.75;25.50;;;;;25.81;52.10;101051.75;146631;572;46912;-73
2022/10/26 12:33:55;;;;;;;;;23.00;21.00;;;;;27.40;51.28;101316.59;146629;626;45020;-73
2022/10/26 12:37:25;;;;;;;;;25.75;24.50;;;;;27.44;51.27;101313.91;146629;571;46012;-74
2022/10/26 12:40:52;;;;;;;;;28.00;24.25;;;;;26.00;51.69;101053.41;146627;578;45020;-73
2022/10/26 12:43:45;;;;;;;;;23.00;22.25;;;;;27.56;49.92;101321.78;146632;608;45912;-74
2022/10/26 12:46:44;;;;;;;;;22.25;21.50;;;;;27.61;49.65;101319.97;146634;614;45020;-74
2022/10/26 12:50:35;;;;;;;;;23.50;21.75;;;;;27.59;50.29;101321.75;146630;569;46914;-73
2022/10/26 12:53:32;;;;;;;;;23.25;21.75;;;;;27.56;49.88;101322.66;146633;579;45021;-72
2022/10/26 12:56:50;;;;;;;;;26.00;20.00;;;;;27.56;50.53;101321.78;146631;563;46012;-73
2022/10/26 13:00:23;;;;;;;;;22.00;20.50;;;;;27.42;50.73;101316.59;146633;631;45021;-73
2022/10/26 13:03:49;;;;;;;;;24.00;21.25;;;;;27.24;51.71;101314.09;146631;585;45016;-74
2022/10/26 13:07:27;;;;;;;;;21.00;19.25;;;;;27.11;51.96;101318.59;146635;574;45020;-73
2022/10/26 13:10:36;;;;;;;;;27.00;23.25;;;;;26.93;52.58;101322.25;146629;618;45012;-73
2022/10/26 13:13:30;;;;;;;;;19.00;19.00;;;;;26.78;51.90;101322.34;146628;586;46010;-74
2022/10/26 13:16:34;;;;;;;;;21.00;20.00;;;;;26.58;52.58;101320.72;146632;593;45012;-75
2022/10/26 13:20:08;;;;;;;;;;;;;;;;;;;;;
2022/10/26 13:23:05;;;;;;;;;25.50;23.00;;;;;26.52;53.20;101318.06;146632;567;45013;-74
2022/10/26 13:26:25;;;;;;;;;23.50;20.50;;;;;26.45;52.11;101322.50;146634;575;45010;-72
2022/10/26 13:29:21;;;;;;;;;19.00;19.00;;;;;26.38;52.47;101315.44;146626;586;46021;-73
2022/10/26 13:32:21;;;;;;;;;22.00;21.50;;;;;26.41;53.13;101315.41;146625;616;46010;-75
2022/10/26 13:35:17;;;;;;;;;21.00;18.25;;;;;26.47;53.17;101319.84;146609;698;46014;-75
2022/10/26 13:38:24;;;;;;;;;21.75;20.75;;;;;26.48;52.25;101319.88;146622;564;46011;-74
2022/10/26 13:41:35;;;;;;;;;21.75;20.50;;;;;26.30;52.91;101324.34;146614;615;47014;-75
2022/10/26 13:45:07;;;;;;;;;;;;;;;;;;;;;
2022/10/26 13:48:49;;;;;;;;;21.25;19.50;;;;;25.90;53.20;101324.47;146614;610;47012;-73
2022/10/26 13:52:02;;;;;;;;;24.00;20.00;;;;;25.69;54.83;101322.69;146621;650;46021;-73
2022/10/26 13:55:35;;;;;;;;;23.25;22.75;;;;;24.10;55.16;101051.22;146615;590;46016;-75
2022/10/26 13:59:05;;;;;;;;;27.50;23.25;;;;;24.75;54.08;101160.84;146615;601;47010;-74
2022/10/26 14:02:20;;;;;;;;;26.50;23.75;;;;;25.71;53.85;101328.91;146615;563;47014;-73
2022/10/26 14:05:31;;;;;;;;;21.50;19.75;;;;;25.58;54.71;101328.94;146618;581;46020;-73
2022/10/26 14:08:34;;;;;;;;;20.75;20.75;;;;;25.50;55.02;101332.47;146616;630;46017;-75
2022/10/26 14:12:02;;;;;;;;;20.75;20.25;;;;;25.41;55.33;101329.81;146617;611;46020;-73
2022/10/26 14:14:56;;;;;;;;;21.50;19.25;;;;;25.29;55.71;101336.00;146617;616;46016;-73
2022/10/26 14:17:58;;;;;;;;;19.25;19.25;;;;;25.19;56.11;101328.94;146613;620;46020;-75
2022/10/26 14:21:35;;;;;;;;;21.25;17.75;;;;;23.79;56.13;101103.25;146613;648;46015;-74
2022/10/26 14:24:43;;;;;;;;;24.00;21.75;;;;;24.99;56.50;101335.06;146619;565;46020;-73
2022/10/26 14:27:57;;;;;;;;;23.50;19.75;;;;;23.30;56.72;101076.56;146609;571;48012;-75
2022/10/26 14:30:56;;;;;;;;;23.75;21.25;;;;;24.69;57.52;101338.53;146615;603;47012;-74
2022/10/26 14:33:54;;;;;;;;;23.75;20.50;;;;;24.64;57.54;101341.19;146606;563;47012;-73
2022/10/26 14:37:01;;;;;;;;;22.25;21.50;;;;;23.88;57.42;101221.59;146610;679;46012;-74